createdAt,value
2023-03-07T00:00:52.772Z,4.50
2023-03-07T00:05:44.803Z,4.50
2023-03-07T00:10:36.959Z,4.50
2023-03-07T00:15:35.802Z,4.50
2023-03-07T00:20:28.187Z,4.60
2023-03-07T00:25:19.860Z,4.60
2023-03-07T00:30:14.880Z,4.50
2023-03-07T00:35:07.148Z,4.40
2023-03-07T00:39:58.836Z,4.40
2023-03-07T00:44:50.591Z,4.40
2023-03-07T00:49:42.344Z,4.40
2023-03-07T00:54:34.030Z,4.40
2023-03-07T00:59:25.702Z,4.40
2023-03-07T01:04:17.427Z,4.40
2023-03-07T01:09:09.502Z,4.40
2023-03-07T01:14:05.527Z,4.40
2023-03-07T01:19:05.164Z,4.40
2023-03-07T01:23:57.618Z,4.40
2023-03-07T01:28:52.310Z,4.30
2023-03-07T01:33:44.217Z,4.30
2023-03-07T01:38:35.897Z,4.20
2023-03-07T01:43:33.394Z,4.20
2023-03-07T01:48:26.148Z,4.20
2023-03-07T02:25:37.497Z,4.20
2023-03-07T02:40:43.107Z,4.10
2023-03-07T02:45:37.358Z,4.20
2023-03-07T02:50:29.161Z,4.10
2023-03-07T02:55:21.291Z,4.10
2023-03-07T03:00:13.753Z,4.10
2023-03-07T03:05:06.872Z,4.10
2023-03-07T03:09:58.540Z,4.10
2023-03-07T03:14:50.223Z,4.00
2023-03-07T03:19:42.120Z,4.00
2023-03-07T03:24:33.796Z,4.00
2023-03-07T03:29:25.970Z,4.00
2023-03-07T03:34:17.925Z,4.10
2023-03-07T03:39:11.013Z,4.00
2023-03-07T03:44:02.843Z,4.00
2023-03-07T03:48:55.564Z,4.10
2023-03-07T03:53:47.343Z,4.10
2023-03-07T03:58:40.381Z,4.00
2023-03-07T04:03:42.704Z,4.00
2023-03-07T04:08:35.622Z,4.00
2023-03-07T04:13:27.627Z,4.00
2023-03-07T04:18:19.375Z,4.00
2023-03-07T04:23:11.843Z,4.00
2023-03-07T04:28:04.304Z,4.00
2023-03-07T05:03:36.135Z,3.90
2023-03-07T05:08:29.491Z,3.80
2023-03-07T05:13:23.248Z,3.90
2023-03-07T05:18:15.316Z,3.90
2023-03-07T05:23:08.468Z,3.90
2023-03-07T05:28:01.089Z,3.90
2023-03-07T05:32:53.566Z,3.90
2023-03-07T05:42:52.016Z,3.90
2023-03-07T05:47:46.310Z,3.90
2023-03-07T05:57:45.104Z,3.90
2023-03-07T06:07:44.320Z,3.90
2023-03-07T06:12:40.806Z,3.90
2023-03-07T06:17:32.809Z,3.90
2023-03-07T06:22:29.256Z,4.00
2023-03-07T06:27:23.367Z,4.10
2023-03-07T06:32:15.806Z,4.10
2023-03-07T06:37:08.348Z,4.10
2023-03-07T06:47:06.725Z,4.20
2023-03-07T06:51:59.389Z,4.40
2023-03-07T07:02:01.549Z,4.60
2023-03-07T07:06:55.296Z,4.80
2023-03-07T07:11:50.705Z,4.90
2023-03-07T07:16:50.854Z,5.00
2023-03-07T07:21:50.897Z,5.10
2023-03-07T07:31:52.708Z,5.20
2023-03-07T08:02:17.367Z,5.70
2023-03-07T08:12:28.481Z,6.10
2023-03-07T08:28:37.828Z,6.30
2023-03-07T08:48:54.795Z,6.80
2023-03-07T09:09:11.685Z,7.00
2023-03-07T09:14:05.714Z,6.80
2023-03-07T09:29:15.311Z,7.10
2023-03-07T10:01:31.503Z,7.40
2023-03-07T10:06:58.279Z,7.80
2023-03-07T10:12:13.610Z,7.90
2023-03-07T10:18:04.353Z,8.00
2023-03-07T10:39:57.483Z,7.60
2023-03-07T11:07:05.167Z,7.90
2023-03-07T13:37:20.930Z,9.10
2023-03-07T13:42:49.439Z,9.20
2023-03-07T17:58:58.368Z,6.30
2023-03-07T19:21:26.865Z,6.20
2023-03-07T21:03:39.790Z,5.70
2023-03-07T21:29:37.629Z,5.70
2023-03-07T21:39:38.061Z,5.70
2023-03-07T22:56:05.008Z,5.40
2023-03-07T23:52:44.607Z,5.30
